Davenport, IA

3:18 AM CDT on August 24, 2016 (GMT -0500)
West Central Davenport | | Change Station

Elev 704 ft 41.53 °N, 90.61 °W | Updated 19 seconds ago

Light Thunderstorms and Rain
Light Thunderstorm Rain Mist
71.4 °F
Feels Like 71.4 °F
N
0.0
Wind Variable Wind from South
Gusts 4.8 mph

Today
High -- | Low -- °F
--% Chance of Precip.
Yesterday
High -- | Low -- °F
Precip. -- in
Pressure 29.97 in
Visibility 5.0 miles
Clouds Few 700 ft
Mostly Cloudy 4800 ft
Overcast 7000 ft
Dew Point 67 °F
Humidity 86%
Rainfall 0.28 in
Snow Depth Not available.
6:20 AM 7:47 PM
Waning Gibbous, 59% visible
SPECI KDVN 240811Z AUTO 16010KT 5SM -TSRA BR FEW007 BKN048 OVC070 22/21 A2997 RMK AO2 LTG DSNT ALQDS P0002 T02170206
Pressure 29.97 in
Visibility 5.0 miles
Clouds Few 700 ft
Mostly Cloudy 4800 ft
Overcast 7000 ft
Dew Point 67 °F
Humidity 86%
Rainfall 0.28 in
Snow Depth Not available.
6:20 AM 7:47 PM
Waning Gibbous, 59% visible
SPECI KDVN 240811Z AUTO 16010KT 5SM -TSRA BR FEW007 BKN048 OVC070 22/21 A2997 RMK AO2 LTG DSNT ALQDS P0002 T02170206

10-Day Weather Forecast

Almanac

Astronomy

Aug. 24, 2016 Rise Set
Actual Time
Civil Twilight
Nautical Twilight
Astronomical Twilight
Moon
Length of Visible Light
Length of Day
Tomorrow will be .
, % of the Moon is Illuminated

Today's Extremes

State Highs State Lows

Community

WunderPhotos

Upload Photos

1,934,552 photos uploaded!

WunderBlog® & News

Nearby

Air Quality

  Air Quality AQ Index Pollutant
Not available.

Snow Depth

Station Depth Elevation

Earthquake Activity

City Distance Mag. Time & Date
Minimum magnitude displayed is 2.5.

Coastal Water Temperatures

Place Temperature

Stations

Nearby Weather Stations

Station Location Temp. Windchill Dew Point Humidity Wind Precip. Elev Updated Type
                   

Watches & Warnings

There are currently no watches in effect.